ACA96 CYHZ-CYQY
Flight info
| Callsign | ACA96 |
|---|---|
| Flight time | 0h 34m |
| Altitude | 19000 |
| Route | IGTAS DCT NOTOP DCT YQY |
| Aircraft | CRJ9/M-SDFGIRWY/S |
Departure
| Time | 2026-05-04 22:41 |
|---|---|
| Airport | Halifax / Stanfield International Airport (CYHZ) |
Arrival
| Time | 2026-05-04 23:16 |
|---|---|
| Airport | Sydney / J.A. Douglas McCurdy Airport (CYQY) |
| Time | Latitude | Longitude | Altitude | Speed | Heading |
|---|---|---|---|---|---|
| 2026-05-04 22:18 | 44.88508 | -63.51344 | 450 ft | 0 kts | 259° |
| 2026-05-04 22:28 | 44.88510 | -63.51330 | 450 ft | 4 kts | 260° |
| 2026-05-04 22:28 | 44.88513 | -63.51294 | 450 ft | 4 kts | 265° |
| 2026-05-04 22:29 | 44.88514 | -63.51260 | 450 ft | 3 kts | 276° |
| 2026-05-04 22:29 | 44.88510 | -63.51238 | 450 ft | 2 kts | 293° |
| 2026-05-04 22:29 | 44.88503 | -63.51224 | 450 ft | 2 kts | 315° |
| 2026-05-04 22:29 | 44.88490 | -63.51212 | 450 ft | 2 kts | 339° |
| 2026-05-04 22:30 | 44.88478 | -63.51207 | 450 ft | 2 kts | 346° |
| 2026-05-04 22:30 | 44.88468 | -63.51203 | 450 ft | 2 kts | 348° |
| 2026-05-04 22:30 | 44.88467 | -63.51203 | 450 ft | 0 kts | 348° |
| 2026-05-04 22:31 | 44.88469 | -63.51204 | 450 ft | 1 kts | 348° |
| 2026-05-04 22:31 | 44.88474 | -63.51205 | 450 ft | 1 kts | 348° |
| 2026-05-04 22:31 | 44.88487 | -63.51209 | 450 ft | 4 kts | 348° |
| 2026-05-04 22:32 | 44.88531 | -63.51221 | 450 ft | 9 kts | 349° |
| 2026-05-04 22:32 | 44.88608 | -63.51241 | 450 ft | 13 kts | 351° |
| 2026-05-04 22:32 | 44.88697 | -63.51262 | 450 ft | 13 kts | 350° |
| 2026-05-04 22:32 | 44.88719 | -63.51263 | 450 ft | 0 kts | 27° |
| 2026-05-04 22:33 | 44.88720 | -63.51261 | 450 ft | 0 kts | 52° |
| 2026-05-04 22:33 | 44.88721 | -63.51250 | 450 ft | 5 kts | 94° |
| 2026-05-04 22:33 | 44.88695 | -63.51151 | 450 ft | 12 kts | 112° |
| 2026-05-04 22:33 | 44.88696 | -63.51088 | 450 ft | 5 kts | 74° |
| 2026-05-04 22:34 | 44.88709 | -63.51032 | 450 ft | 7 kts | 72° |
| 2026-05-04 22:34 | 44.88727 | -63.50956 | 450 ft | 9 kts | 70° |
| 2026-05-04 22:34 | 44.88770 | -63.50881 | 450 ft | 11 kts | 38° |
| 2026-05-04 22:34 | 44.88840 | -63.50810 | 449 ft | 14 kts | 33° |
| 2026-05-04 22:35 | 44.88927 | -63.50723 | 448 ft | 16 kts | 35° |
| 2026-05-04 22:35 | 44.88995 | -63.50637 | 449 ft | 11 kts | 68° |
| 2026-05-04 22:35 | 44.89000 | -63.50598 | 449 ft | 0 kts | 105° |
| 2026-05-04 22:39 | 44.88988 | -63.50556 | 449 ft | 9 kts | 120° |
| 2026-05-04 22:40 | 44.88929 | -63.50451 | 449 ft | 17 kts | 155° |
| 2026-05-04 22:40 | 44.88809 | -63.50507 | 449 ft | 19 kts | 216° |
| 2026-05-04 22:40 | 44.88790 | -63.50529 | 449 ft | 0 kts | 218° |
| 2026-05-04 22:40 | 44.88779 | -63.50540 | 449 ft | 15 kts | 216° |
| 2026-05-04 22:41 | 44.88473 | -63.50842 | 450 ft | 92 kts | 216° |
| 2026-05-04 22:41 | 44.87750 | -63.51560 | 455 ft | 155 kts | 214° |
| 2026-05-04 22:41 | 44.86773 | -63.52387 | 1086 ft | 161 kts | 204° |
| 2026-05-04 22:41 | 44.85760 | -63.52883 | 2301 ft | 149 kts | 199° |
| 2026-05-04 22:42 | 44.84771 | -63.53157 | 3256 ft | 146 kts | 195° |
| 2026-05-04 22:42 | 44.83742 | -63.53225 | 4033 ft | 159 kts | 181° |
| 2026-05-04 22:42 | 44.82739 | -63.52181 | 4605 ft | 207 kts | 124° |
| 2026-05-04 22:42 | 44.82440 | -63.50135 | 5228 ft | 221 kts | 76° |
| 2026-05-04 22:43 | 44.83046 | -63.48227 | 5853 ft | 208 kts | 30° |
| 2026-05-04 22:43 | 44.84199 | -63.47238 | 6446 ft | 192 kts | 4° |
| 2026-05-04 22:43 | 44.85360 | -63.46126 | 6994 ft | 217 kts | 37° |
| 2026-05-04 22:43 | 44.86247 | -63.44425 | 7751 ft | 214 kts | 41° |
| 2026-05-04 22:44 | 44.87111 | -63.42709 | 8384 ft | 215 kts | 43° |
| 2026-05-04 22:44 | 44.87948 | -63.40953 | 9024 ft | 216 kts | 46° |
| 2026-05-04 22:44 | 44.88746 | -63.39145 | 9617 ft | 218 kts | 49° |
| 2026-05-04 22:44 | 44.89520 | -63.37304 | 10140 ft | 219 kts | 50° |
| 2026-05-04 22:45 | 44.90309 | -63.35418 | 10525 ft | 229 kts | 50° |
| 2026-05-04 22:45 | 44.92129 | -63.31195 | 10909 ft | 273 kts | 51° |
| 2026-05-04 22:45 | 44.93176 | -63.28784 | 10995 ft | 307 kts | 51° |
| 2026-05-04 22:46 | 44.94344 | -63.26088 | 11194 ft | 336 kts | 56° |
| 2026-05-04 22:46 | 44.95600 | -63.23177 | 11571 ft | 358 kts | 57° |
| 2026-05-04 22:46 | 44.96918 | -63.20058 | 11905 ft | 381 kts | 57° |
| 2026-05-04 22:46 | 44.98309 | -63.16753 | 12330 ft | 401 kts | 57° |
| 2026-05-04 22:47 | 44.99743 | -63.13340 | 12761 ft | 417 kts | 56° |
| 2026-05-04 22:47 | 45.01261 | -63.09758 | 13232 ft | 432 kts | 56° |
| 2026-05-04 22:47 | 45.02817 | -63.06090 | 13911 ft | 438 kts | 56° |
| 2026-05-04 22:47 | 45.04416 | -63.02336 | 14249 ft | 453 kts | 56° |
| 2026-05-04 22:48 | 45.06047 | -62.98475 | 14808 ft | 459 kts | 56° |
| 2026-05-04 22:48 | 45.07707 | -62.94573 | 15367 ft | 466 kts | 56° |
| 2026-05-04 22:48 | 45.09375 | -62.90631 | 15982 ft | 471 kts | 56° |
| 2026-05-04 22:48 | 45.10932 | -62.86865 | 16567 ft | 476 kts | 58° |
| 2026-05-04 22:49 | 45.12585 | -62.82807 | 17349 ft | 473 kts | 57° |
| 2026-05-04 22:49 | 45.14230 | -62.78774 | 18070 ft | 475 kts | 57° |
| 2026-05-04 22:49 | 45.15888 | -62.74716 | 18523 ft | 479 kts | 58° |
| 2026-05-04 22:49 | 45.17561 | -62.70586 | 18718 ft | 490 kts | 58° |
| 2026-05-04 22:50 | 45.19265 | -62.66382 | 18754 ft | 488 kts | 58° |
| 2026-05-04 22:50 | 45.20936 | -62.62255 | 18756 ft | 479 kts | 58° |
| 2026-05-04 22:50 | 45.22582 | -62.58187 | 18756 ft | 471 kts | 58° |
| 2026-05-04 22:50 | 45.24197 | -62.54183 | 18774 ft | 465 kts | 58° |
| 2026-05-04 22:51 | 45.25788 | -62.50220 | 18769 ft | 460 kts | 58° |
| 2026-05-04 22:51 | 45.27360 | -62.46301 | 18753 ft | 455 kts | 58° |
| 2026-05-04 22:51 | 45.28926 | -62.42409 | 18750 ft | 453 kts | 58° |
| 2026-05-04 22:51 | 45.30496 | -62.38494 | 18754 ft | 461 kts | 58° |
| 2026-05-04 22:52 | 45.32101 | -62.34489 | 18762 ft | 471 kts | 58° |
| 2026-05-04 22:52 | 45.33744 | -62.30375 | 18773 ft | 486 kts | 58° |
| 2026-05-04 22:52 | 45.35418 | -62.26166 | 18766 ft | 489 kts | 58° |
| 2026-05-04 22:52 | 45.37092 | -62.21976 | 18736 ft | 489 kts | 59° |
| 2026-05-04 22:53 | 45.38765 | -62.17765 | 18751 ft | 489 kts | 59° |
| 2026-05-04 22:53 | 45.40436 | -62.13558 | 18742 ft | 488 kts | 59° |
| 2026-05-04 22:53 | 45.41543 | -62.10770 | 18739 ft | 489 kts | 59° |
| 2026-05-04 22:53 | 45.43779 | -62.05132 | 18750 ft | 489 kts | 59° |
| 2026-05-04 22:54 | 45.44882 | -62.02339 | 18740 ft | 489 kts | 59° |
| 2026-05-04 22:54 | 45.46507 | -61.98095 | 18746 ft | 489 kts | 60° |
| 2026-05-04 22:54 | 45.48081 | -61.93801 | 18745 ft | 489 kts | 61° |
| 2026-05-04 22:54 | 45.49657 | -61.89509 | 18750 ft | 489 kts | 61° |
| 2026-05-04 22:55 | 45.51746 | -61.83812 | 18753 ft | 489 kts | 61° |
| 2026-05-04 22:55 | 45.52819 | -61.80911 | 18747 ft | 490 kts | 61° |
| 2026-05-04 22:55 | 45.54416 | -61.76616 | 18743 ft | 490 kts | 60° |
| 2026-05-04 22:55 | 45.56000 | -61.72351 | 18724 ft | 490 kts | 61° |
| 2026-05-04 22:56 | 45.57749 | -61.68190 | 18717 ft | 487 kts | 51° |
| 2026-05-04 22:56 | 45.59767 | -61.64311 | 18716 ft | 487 kts | 52° |
| 2026-05-04 22:56 | 45.61655 | -61.60289 | 18715 ft | 488 kts | 56° |
| 2026-05-04 22:56 | 45.63382 | -61.56320 | 18215 ft | 468 kts | 56° |
| 2026-05-04 22:57 | 45.65067 | -61.52442 | 18071 ft | 452 kts | 56° |
| 2026-05-04 22:57 | 45.66710 | -61.48679 | 17735 ft | 442 kts | 56° |
| 2026-05-04 22:57 | 45.68345 | -61.44972 | 17190 ft | 439 kts | 55° |
| 2026-05-04 22:57 | 45.69976 | -61.41317 | 16703 ft | 434 kts | 55° |
| 2026-05-04 22:58 | 45.71596 | -61.37691 | 16203 ft | 431 kts | 55° |
| 2026-05-04 22:58 | 45.73195 | -61.34095 | 15711 ft | 427 kts | 55° |
| 2026-05-04 22:58 | 45.74781 | -61.30521 | 15256 ft | 423 kts | 55° |
| 2026-05-04 22:58 | 45.76360 | -61.26968 | 14797 ft | 420 kts | 55° |
| 2026-05-04 22:59 | 45.77918 | -61.23456 | 14339 ft | 416 kts | 55° |
| 2026-05-04 22:59 | 45.79465 | -61.19968 | 13919 ft | 412 kts | 55° |
| 2026-05-04 22:59 | 45.80996 | -61.16512 | 13466 ft | 409 kts | 54° |
| 2026-05-04 22:59 | 45.82514 | -61.13076 | 12984 ft | 405 kts | 54° |
| 2026-05-04 23:00 | 45.84015 | -61.09677 | 12473 ft | 402 kts | 54° |
| 2026-05-04 23:00 | 45.85507 | -61.06298 | 11950 ft | 399 kts | 54° |
| 2026-05-04 23:00 | 45.86981 | -61.02967 | 11729 ft | 388 kts | 54° |
| 2026-05-04 23:00 | 45.88364 | -60.99818 | 11438 ft | 369 kts | 54° |
| 2026-05-04 23:01 | 45.89709 | -60.96767 | 11096 ft | 354 kts | 54° |
| 2026-05-04 23:01 | 45.90998 | -60.93833 | 10756 ft | 342 kts | 53° |
| 2026-05-04 23:01 | 45.92248 | -60.90991 | 10410 ft | 332 kts | 53° |
| 2026-05-04 23:01 | 45.93478 | -60.88188 | 9902 ft | 330 kts | 53° |
| 2026-05-04 23:02 | 45.94694 | -60.85413 | 9380 ft | 327 kts | 53° |
| 2026-05-04 23:02 | 45.95898 | -60.82660 | 8885 ft | 324 kts | 53° |
| 2026-05-04 23:02 | 45.97098 | -60.79933 | 8343 ft | 321 kts | 53° |
| 2026-05-04 23:02 | 45.98167 | -60.77488 | 7904 ft | 318 kts | 53° |
| 2026-05-04 23:03 | 45.99332 | -60.74806 | 7425 ft | 315 kts | 53° |
| 2026-05-04 23:03 | 46.00484 | -60.72153 | 6949 ft | 311 kts | 53° |
| 2026-05-04 23:03 | 46.01624 | -60.69526 | 6488 ft | 308 kts | 53° |
| 2026-05-04 23:03 | 46.02759 | -60.66923 | 6029 ft | 305 kts | 53° |
| 2026-05-04 23:04 | 46.03882 | -60.64343 | 5508 ft | 304 kts | 53° |
| 2026-05-04 23:04 | 46.04978 | -60.61819 | 5202 ft | 296 kts | 53° |
| 2026-05-04 23:04 | 46.06043 | -60.59354 | 5061 ft | 283 kts | 52° |
| 2026-05-04 23:04 | 46.07063 | -60.57016 | 4984 ft | 268 kts | 52° |
| 2026-05-04 23:05 | 46.08028 | -60.54799 | 4944 ft | 254 kts | 52° |
| 2026-05-04 23:05 | 46.08937 | -60.52708 | 4925 ft | 239 kts | 52° |
| 2026-05-04 23:05 | 46.09795 | -60.50736 | 4917 ft | 225 kts | 51° |
| 2026-05-04 23:05 | 46.10607 | -60.48877 | 4909 ft | 218 kts | 50° |
| 2026-05-04 23:06 | 46.11530 | -60.46844 | 4998 ft | 269 kts | 50° |
| 2026-05-04 23:06 | 46.12665 | -60.44382 | 5050 ft | 319 kts | 52° |
| 2026-05-04 23:06 | 46.13793 | -60.41729 | 5269 ft | 295 kts | 55° |
| 2026-05-04 23:06 | 46.14826 | -60.39194 | 4762 ft | 296 kts | 55° |
| 2026-05-04 23:07 | 46.15879 | -60.36656 | 4394 ft | 293 kts | 54° |
| 2026-05-04 23:07 | 46.16940 | -60.34149 | 3899 ft | 292 kts | 53° |
| 2026-05-04 23:07 | 46.18003 | -60.31661 | 3456 ft | 291 kts | 54° |
| 2026-05-04 23:07 | 46.19051 | -60.29207 | 3211 ft | 282 kts | 54° |
| 2026-05-04 23:08 | 46.20035 | -60.26895 | 3087 ft | 266 kts | 54° |
| 2026-05-04 23:08 | 46.20969 | -60.24708 | 3050 ft | 245 kts | 53° |
| 2026-05-04 23:08 | 46.21832 | -60.22709 | 3008 ft | 225 kts | 53° |
| 2026-05-04 23:08 | 46.22626 | -60.20871 | 2941 ft | 208 kts | 52° |
| 2026-05-04 23:09 | 46.23402 | -60.19091 | 2573 ft | 207 kts | 52° |
| 2026-05-04 23:09 | 46.24070 | -60.17572 | 2243 ft | 201 kts | 52° |
| 2026-05-04 23:09 | 46.24759 | -60.15903 | 2079 ft | 189 kts | 61° |
| 2026-05-04 23:09 | 46.25253 | -60.14196 | 1993 ft | 180 kts | 67° |
| 2026-05-04 23:10 | 46.25635 | -60.12528 | 1903 ft | 170 kts | 71° |
| 2026-05-04 23:10 | 46.25981 | -60.10935 | 1725 ft | 162 kts | 73° |
| 2026-05-04 23:10 | 46.26320 | -60.09434 | 1630 ft | 158 kts | 73° |
| 2026-05-04 23:10 | 46.26640 | -60.07927 | 1702 ft | 152 kts | 73° |
| 2026-05-04 23:11 | 46.26959 | -60.06475 | 1649 ft | 156 kts | 73° |
| 2026-05-04 23:11 | 46.27295 | -60.05012 | 1430 ft | 145 kts | 74° |
| 2026-05-04 23:11 | 46.27540 | -60.03354 | 1290 ft | 184 kts | 93° |
| 2026-05-04 23:11 | 46.27064 | -60.01620 | 1464 ft | 193 kts | 143° |
| 2026-05-04 23:12 | 46.25910 | -60.00884 | 1775 ft | 172 kts | 187° |
| 2026-05-04 23:12 | 46.24944 | -60.00643 | 2196 ft | 122 kts | 187° |
| 2026-05-04 23:12 | 46.24134 | -60.00374 | 1901 ft | 120 kts | 186° |
| 2026-05-04 23:12 | 46.23383 | -60.00058 | 1740 ft | 110 kts | 183° |
| 2026-05-04 23:13 | 46.22627 | -59.99716 | 1294 ft | 112 kts | 179° |
| 2026-05-04 23:13 | 46.21912 | -59.99340 | 1089 ft | 107 kts | 174° |
| 2026-05-04 23:13 | 46.21218 | -59.98952 | 912 ft | 113 kts | 173° |
| 2026-05-04 23:13 | 46.20525 | -59.98658 | 1046 ft | 99 kts | 194° |
| 2026-05-04 23:14 | 46.19940 | -59.99094 | 1098 ft | 100 kts | 238° |
| 2026-05-04 23:14 | 46.19520 | -59.99863 | 1096 ft | 88 kts | 235° |
| 2026-05-04 23:14 | 46.19059 | -60.00633 | 884 ft | 104 kts | 232° |
| 2026-05-04 23:14 | 46.18568 | -60.01318 | 670 ft | 110 kts | 230° |
| 2026-05-04 23:15 | 46.18081 | -60.02146 | 730 ft | 92 kts | 230° |
| 2026-05-04 23:15 | 46.17613 | -60.02827 | 457 ft | 110 kts | 226° |
| 2026-05-04 23:15 | 46.17080 | -60.03558 | 491 ft | 89 kts | 227° |
| 2026-05-04 23:15 | 46.16612 | -60.04219 | 300 ft | 97 kts | 231° |
| 2026-05-04 23:16 | 46.16238 | -60.04826 | 195 ft | 67 kts | 228° |
| 2026-05-04 23:16 | 46.16088 | -60.05044 | 194 ft | 2 kts | 182° |
| 2026-05-04 23:16 | 46.16076 | -60.05036 | 201 ft | 2 kts | 134° |
| 2026-05-04 23:16 | 46.16072 | -60.05014 | 204 ft | 3 kts | 84° |
| 2026-05-04 23:17 | 46.16103 | -60.04961 | 197 ft | 18 kts | 42° |
| 2026-05-04 23:17 | 46.16226 | -60.04792 | 205 ft | 17 kts | 45° |
| 2026-05-04 23:17 | 46.16321 | -60.04653 | 199 ft | 22 kts | 45° |
| 2026-05-04 23:17 | 46.16462 | -60.04518 | 200 ft | 24 kts | 9° |
| 2026-05-04 23:18 | 46.16514 | -60.04556 | 205 ft | 0 kts | 323° |
| 2026-05-04 23:18 | 46.16515 | -60.04557 | 205 ft | 0 kts | 334° |